Aeroporto :
LOGIN :

Iscrizione | Disclaimer

   EN    FR    IT 

 










Sommario :    VFR   VFR Marginale   IFR   IFR Intensivo   IFR Molto Intensivo
Visibilità : 
Base nubi : 
>= 8 km
>= 3000ft
5 / 8 km
1000 / 3000 ft
1500m / 5 km
500 / 1000 ft
800 / 1500m
200 / 500 ft
< 800m
< 200 ft
Simboli :   Temporali  Nebbia  Neve Forte  Precipitazioni Forti  Vento > 20 kt
SIGMETs :   Varie  Temporali  Ghiacco  Turbolenza  Onda orograficha  Ceneri Vulcaniche






- Altitudine del aeroporto : 83 ft
- Codice IATA : LHR


EGLL - London Heathrow

ULTIMO METAR :
  • 182050Z AUTO 30005KT 9999 NCD 04/01 Q1034 NOSIG

METARs OBSOLETI :
  • 182020Z AUTO 29004KT 9999 NCD 04/01 Q1033
  • 181950Z AUTO 29003KT 9999 NCD 05/01 Q1033
  • 181920Z AUTO 30003KT 9999 NCD 05/01 Q1033
  • 181850Z AUTO 29004KT 9999 NCD 05/01 Q1032 NOSIG
  • 181820Z AUTO 30003KT 9999 NCD 05/01 Q1032

TAF TAF EGLL
Valido dal 18 a 18 ore il 20 a 00 ore UTC


181658Z 1818/1924 34006KT CAVOK
PROB30 1900/1909 8000
PROB30 1921/1924 8000



MetMap, La meteo Aeronautica in un colpo d'occhio ! - Copyright ORBIFLY Dicembre 2007 - Disclaimer

ORBIFLY MET'MAP TEAM :

Programmazione e sviluppo : Alexandra Zaïnal
Concezione : Baudouin d'Aumeries
Aiuto per la programmazione : Marc-Olivier Méhu
Supporto tecnico e logistico : Manuel Goepfert
Aiuto per la traduzione : Arnaldo La Scala

Contatto : metmap@orbifly.com




FONTI E CREDITI :

   NOAA